createdAt,value
2018-04-19T00:01:32.921Z,34.20
2018-04-19T00:04:00.399Z,28.90
2018-04-19T00:06:27.970Z,33.67
2018-04-19T00:08:56.205Z,23.60
2018-04-19T00:11:23.700Z,27.77
2018-04-19T00:13:51.162Z,26.40
2018-04-19T00:16:19.395Z,34.17
2018-04-19T00:18:46.877Z,30.50
2018-04-19T00:21:15.872Z,26.83
2018-04-19T00:23:43.425Z,29.63
2018-04-19T00:26:10.889Z,27.00
2018-04-19T00:28:38.390Z,30.20
2018-04-19T00:31:05.952Z,32.00
2018-04-19T00:33:33.509Z,27.57
2018-04-19T00:36:00.977Z,28.80
2018-04-19T00:38:28.458Z,24.30
2018-04-19T00:40:55.949Z,32.10
2018-04-19T00:43:24.181Z,31.20
2018-04-19T00:45:51.649Z,28.30
2018-04-19T00:48:19.137Z,26.43
2018-04-19T00:50:47.363Z,33.67
2018-04-19T00:53:14.825Z,35.70
2018-04-19T00:55:42.300Z,23.40
2018-04-19T00:58:09.766Z,31.43
2018-04-19T01:00:37.270Z,29.20
2018-04-19T01:03:04.729Z,34.30
2018-04-19T01:05:32.195Z,24.80
2018-04-19T01:07:59.669Z,33.93
2018-04-19T01:10:27.137Z,28.57
2018-04-19T01:12:54.612Z,26.87
2018-04-19T01:15:22.110Z,32.63
2018-04-19T01:17:49.572Z,33.60
2018-04-19T01:20:17.034Z,24.20
2018-04-19T01:22:44.509Z,24.33
2018-04-19T01:25:11.989Z,26.47
2018-04-19T01:27:39.449Z,25.93
2018-04-19T01:30:07.697Z,29.00
2018-04-19T01:32:35.168Z,25.43
2018-04-19T01:35:02.640Z,25.83
2018-04-19T01:37:30.137Z,26.63
2018-04-19T01:39:57.595Z,25.20
2018-04-19T01:42:25.064Z,27.47
2018-04-19T01:44:52.552Z,37.00
2018-04-19T01:47:20.013Z,25.10
2018-04-19T01:49:47.481Z,31.30
2018-04-19T01:52:15.744Z,25.47
2018-04-19T01:54:43.213Z,26.33
2018-04-19T01:57:11.439Z,27.07
2018-04-19T01:59:38.920Z,26.67
2018-04-19T02:02:06.386Z,26.00
2018-04-19T02:04:33.867Z,30.47
2018-04-19T02:07:02.103Z,23.40
2018-04-19T02:09:29.587Z,27.13
2018-04-19T02:11:57.825Z,32.53
2018-04-19T02:14:25.283Z,26.47
2018-04-19T02:16:52.764Z,25.40
2018-04-19T02:19:20.233Z,21.27
2018-04-19T02:21:48.468Z,24.87
2018-04-19T02:24:15.944Z,23.57
2018-04-19T02:26:43.429Z,22.40
2018-04-19T02:29:11.669Z,20.13
2018-04-19T02:31:39.136Z,28.70
2018-04-19T02:34:06.603Z,19.97
2018-04-19T02:36:34.086Z,25.53
2018-04-19T02:39:01.617Z,26.43
2018-04-19T02:41:29.849Z,27.90
2018-04-19T02:43:57.325Z,20.80
2018-04-19T02:46:24.796Z,19.70
2018-04-19T02:48:52.272Z,20.80
2018-04-19T02:51:20.496Z,19.67
2018-04-19T02:53:47.957Z,23.37
2018-04-19T02:56:15.444Z,18.13
2018-04-19T02:58:43.730Z,24.57
2018-04-19T03:01:11.954Z,23.30
2018-04-19T03:03:39.437Z,27.10
2018-04-19T03:06:07.684Z,20.43
2018-04-19T03:08:35.166Z,22.77
2018-04-19T03:11:02.625Z,20.17
2018-04-19T03:13:30.094Z,27.13
2018-04-19T03:15:57.581Z,15.83
2018-04-19T03:18:25.055Z,14.73
2018-04-19T03:20:52.511Z,20.30
2018-04-19T03:23:20.001Z,15.50
2018-04-19T03:25:47.461Z,14.60
2018-04-19T03:28:14.944Z,13.03
2018-04-19T03:30:43.168Z,11.60
2018-04-19T03:33:10.644Z,13.60
2018-04-19T03:35:38.108Z,12.47
2018-04-19T03:38:05.572Z,12.93
2018-04-19T03:40:33.052Z,14.20
2018-04-19T03:43:01.305Z,11.60
2018-04-19T03:45:28.781Z,12.30
2018-04-19T03:47:57.025Z,9.80
2018-04-19T03:50:24.511Z,9.40
2018-04-19T03:52:52.745Z,9.50
2018-04-19T03:55:20.204Z,13.30
2018-04-19T03:57:47.690Z,9.40
2018-04-19T04:00:15.135Z,11.13
2018-04-19T04:02:42.614Z,12.50
2018-04-19T04:05:10.849Z,14.00
2018-04-19T04:07:38.354Z,18.73
2018-04-19T04:10:06.568Z,10.40
2018-04-19T04:12:34.028Z,8.87
2018-04-19T04:15:01.513Z,15.03
2018-04-19T04:17:40.674Z,13.27
2018-04-19T04:20:10.529Z,12.30
2018-04-19T04:22:49.961Z,12.23
2018-04-19T04:25:17.436Z,15.47
2018-04-19T04:27:44.901Z,11.77
2018-04-19T04:30:12.368Z,11.93
2018-04-19T04:32:39.873Z,11.80
2018-04-19T04:35:07.329Z,9.17
2018-04-19T04:37:34.821Z,12.50
2018-04-19T04:40:02.294Z,9.77
2018-04-19T04:42:31.260Z,13.27
2018-04-19T04:44:58.796Z,13.07
2018-04-19T04:47:26.252Z,21.53
2018-04-19T04:49:53.736Z,11.20
2018-04-19T04:52:21.201Z,19.07
2018-04-19T04:54:48.720Z,15.00
2018-04-19T04:57:16.197Z,10.07
2018-04-19T04:59:43.676Z,10.00
2018-04-19T05:02:11.129Z,13.70
2018-04-19T05:04:38.604Z,8.93
2018-04-19T05:07:06.832Z,11.50
2018-04-19T05:09:34.378Z,12.50
2018-04-19T05:12:01.836Z,14.27
2018-04-19T05:14:29.346Z,14.30
2018-04-19T05:16:56.800Z,9.40
2018-04-19T05:19:24.306Z,9.17
2018-04-19T05:21:51.769Z,10.37
2018-04-19T05:24:19.239Z,10.13
2018-04-19T05:26:46.700Z,10.43
2018-04-19T05:29:14.190Z,13.57
2018-04-19T05:31:41.649Z,13.80
2018-04-19T05:34:09.881Z,13.60
2018-04-19T05:36:37.357Z,12.67
2018-04-19T05:39:04.831Z,10.43
2018-04-19T05:41:32.280Z,9.77
2018-04-19T05:43:59.775Z,12.90
2018-04-19T05:46:27.232Z,9.10
2018-04-19T05:48:54.705Z,8.33
2018-04-19T05:51:22.262Z,8.00
2018-04-19T05:53:49.737Z,7.17
2018-04-19T05:56:17.222Z,11.70
2018-04-19T05:58:44.681Z,13.13
2018-04-19T06:01:12.141Z,9.57
2018-04-19T06:03:40.380Z,9.20
2018-04-19T06:06:07.844Z,9.73
2018-04-19T06:08:35.331Z,9.57
2018-04-19T06:11:02.801Z,8.00
2018-04-19T06:13:31.024Z,10.70
2018-04-19T06:15:58.499Z,8.17
2018-04-19T06:18:25.961Z,8.87
2018-04-19T06:20:53.418Z,12.00
2018-04-19T06:23:20.888Z,7.30
2018-04-19T06:25:49.137Z,6.13
2018-04-19T06:28:16.634Z,8.33
2018-04-19T06:30:44.869Z,11.00
2018-04-19T06:33:12.332Z,8.70
2018-04-19T06:35:39.808Z,9.70
2018-04-19T06:38:08.055Z,6.23
2018-04-19T06:40:35.520Z,8.87
2018-04-19T06:43:03.004Z,11.33
2018-04-19T06:45:30.454Z,7.83
2018-04-19T06:47:58.771Z,8.97
2018-04-19T06:50:26.332Z,10.20
2018-04-19T06:52:53.796Z,6.33
2018-04-19T06:55:21.284Z,8.50
2018-04-19T06:57:48.801Z,10.10
2018-04-19T07:00:16.360Z,5.23
2018-04-19T07:02:43.836Z,13.20
2018-04-19T07:05:11.297Z,9.77
2018-04-19T07:07:39.805Z,9.53
2018-04-19T07:10:07.259Z,7.73
2018-04-19T07:12:34.816Z,9.90
2018-04-19T07:15:02.289Z,8.47
2018-04-19T07:17:30.515Z,8.47
2018-04-19T07:19:57.983Z,8.40
2018-04-19T07:22:25.513Z,7.73
2018-04-19T07:24:52.997Z,10.07
2018-04-19T07:27:20.471Z,11.50
2018-04-19T07:29:47.935Z,7.60
2018-04-19T07:32:15.414Z,7.80
2018-04-19T07:34:43.656Z,9.37
2018-04-19T07:37:11.171Z,10.33
2018-04-19T07:39:38.676Z,8.70
2018-04-19T07:42:06.152Z,6.50
2018-04-19T07:44:34.393Z,6.90
2018-04-19T07:47:01.869Z,11.30
2018-04-19T07:49:29.349Z,6.43
2018-04-19T07:51:57.569Z,11.27
2018-04-19T07:54:25.061Z,9.67
2018-04-19T07:56:52.509Z,6.50
2018-04-19T07:59:19.965Z,4.97
2018-04-19T08:01:47.440Z,8.60
2018-04-19T08:04:15.660Z,9.53
2018-04-19T08:06:43.157Z,11.03
2018-04-19T08:09:10.618Z,7.10
2018-04-19T08:11:38.077Z,7.80
2018-04-19T08:14:05.552Z,10.10
2018-04-19T08:16:33.769Z,6.70
2018-04-19T08:19:01.261Z,8.63
2018-04-19T08:21:28.736Z,10.00
2018-04-19T08:23:56.957Z,6.10
2018-04-19T08:26:24.432Z,8.60
2018-04-19T08:28:52.009Z,8.30
2018-04-19T08:31:19.465Z,8.23
2018-04-19T08:33:46.970Z,8.30
2018-04-19T08:36:14.426Z,10.80
2018-04-19T08:38:41.981Z,8.23
2018-04-19T08:41:09.451Z,9.57
2018-04-19T08:43:36.916Z,7.90
2018-04-19T08:46:04.380Z,9.67
2018-04-19T08:48:31.912Z,9.50
2018-04-19T08:50:59.468Z,6.33
2018-04-19T08:53:27.025Z,8.53
2018-04-19T08:55:54.470Z,6.37
2018-04-19T08:58:21.928Z,7.00
2018-04-19T09:00:49.421Z,6.50
2018-04-19T09:03:16.885Z,5.57
2018-04-19T09:05:44.364Z,4.90
2018-04-19T09:08:11.829Z,5.60
2018-04-19T09:10:40.104Z,7.60
2018-04-19T09:13:08.353Z,6.07
2018-04-19T09:15:35.816Z,7.80
2018-04-19T09:18:03.280Z,6.90
2018-04-19T09:20:31.521Z,7.63
2018-04-19T09:22:59.059Z,5.13
2018-04-19T09:25:26.457Z,5.73
2018-04-19T09:27:53.913Z,8.00
2018-04-19T09:30:21.372Z,7.13
2018-04-19T09:32:49.618Z,8.43
2018-04-19T09:35:17.070Z,4.80
2018-04-19T09:37:44.532Z,3.50
2018-04-19T09:40:12.025Z,5.20
2018-04-19T09:42:39.490Z,4.53
2018-04-19T09:45:06.952Z,4.33
2018-04-19T09:47:35.209Z,11.67
2018-04-19T09:50:02.678Z,5.70
2018-04-19T09:52:30.906Z,5.20
2018-04-19T09:54:58.385Z,4.90
2018-04-19T09:57:26.612Z,7.43
2018-04-19T09:59:54.070Z,5.90
2018-04-19T10:02:27.315Z,7.40
2018-04-19T10:04:54.772Z,6.87
2018-04-19T10:07:22.250Z,6.63
2018-04-19T10:09:50.469Z,7.80
2018-04-19T10:12:17.944Z,11.67
2018-04-19T10:14:45.451Z,9.33
2018-04-19T10:17:12.888Z,6.70
2018-04-19T10:19:41.132Z,6.60
2018-04-19T10:22:08.611Z,7.70
2018-04-19T10:24:36.075Z,6.83
2018-04-19T10:27:03.620Z,4.83
2018-04-19T10:29:31.083Z,6.53
2018-04-19T10:31:58.529Z,6.80
2018-04-19T10:34:26.024Z,6.50
2018-04-19T10:36:54.248Z,7.20
2018-04-19T10:39:21.725Z,7.00
2018-04-19T10:41:49.184Z,6.30
2018-04-19T10:44:16.640Z,8.30
2018-04-19T10:46:44.149Z,8.23
2018-04-19T10:49:11.630Z,7.47
2018-04-19T10:51:39.084Z,5.27
2018-04-19T10:54:06.588Z,4.70
2018-04-19T10:56:34.020Z,7.27
2018-04-19T10:59:01.500Z,12.13
2018-04-19T11:01:29.732Z,5.27
2018-04-19T11:03:57.193Z,4.27
2018-04-19T11:06:24.684Z,7.93
2018-04-19T11:08:52.926Z,7.80
2018-04-19T11:11:20.379Z,5.97
2018-04-19T11:13:47.861Z,5.70
2018-04-19T11:16:16.094Z,5.33
2018-04-19T11:18:43.565Z,6.80
2018-04-19T11:21:11.017Z,11.10
2018-04-19T11:23:38.501Z,8.80
2018-04-19T11:26:05.975Z,9.93
2018-04-19T11:28:34.189Z,4.33
2018-04-19T11:31:01.663Z,7.70
2018-04-19T11:33:29.143Z,6.63
2018-04-19T11:35:56.597Z,6.00
2018-04-19T11:38:24.060Z,5.43
2018-04-19T11:40:52.282Z,8.10
2018-04-19T11:43:19.740Z,7.97
2018-04-19T11:45:47.221Z,3.80
2018-04-19T11:48:14.680Z,4.90
2018-04-19T11:50:42.157Z,7.83
2018-04-19T11:53:10.393Z,5.57
2018-04-19T11:55:37.867Z,7.20
2018-04-19T11:58:08.052Z,10.47
2018-04-19T12:00:35.511Z,7.27
2018-04-19T12:03:02.980Z,4.60
2018-04-19T12:05:30.444Z,8.40
2018-04-19T12:07:57.908Z,10.27
2018-04-19T12:10:25.395Z,4.47
2018-04-19T12:12:52.996Z,4.87
2018-04-19T12:15:20.489Z,10.13
2018-04-19T12:17:47.942Z,4.60
2018-04-19T12:20:15.403Z,6.00
2018-04-19T12:22:42.896Z,7.17
2018-04-19T12:25:11.130Z,11.90
2018-04-19T12:27:38.625Z,8.43
2018-04-19T12:30:06.853Z,9.63
2018-04-19T12:32:34.313Z,3.73
2018-04-19T12:35:01.829Z,6.70
2018-04-19T12:37:29.391Z,4.13
2018-04-19T12:39:56.858Z,7.03
2018-04-19T12:42:24.377Z,3.57
2018-04-19T12:44:51.820Z,8.03
2018-04-19T12:47:19.279Z,3.83
2018-04-19T12:49:46.749Z,8.33
2018-04-19T12:52:14.969Z,4.33
2018-04-19T12:54:42.426Z,3.50
2018-04-19T12:57:09.895Z,5.10
2018-04-19T12:59:37.429Z,8.50
2018-04-19T13:02:04.885Z,3.83
2018-04-19T13:04:32.385Z,4.93
2018-04-19T13:06:59.862Z,4.30
2018-04-19T13:09:27.324Z,4.73
2018-04-19T13:11:55.574Z,11.50
2018-04-19T13:14:23.021Z,4.77
2018-04-19T13:16:50.500Z,4.60
2018-04-19T13:19:17.963Z,4.43
2018-04-19T13:21:46.192Z,5.20
2018-04-19T13:24:13.660Z,7.67
2018-04-19T13:26:41.120Z,11.17
2018-04-19T13:29:08.588Z,3.67
2018-04-19T13:31:36.099Z,10.10
2018-04-19T13:34:03.658Z,11.13
2018-04-19T13:36:31.229Z,3.77
2018-04-19T13:38:58.708Z,5.03
2018-04-19T13:41:26.170Z,6.30
2018-04-19T13:43:53.656Z,6.17
2018-04-19T13:46:21.880Z,3.80
2018-04-19T13:48:49.336Z,7.63
2018-04-19T13:51:16.833Z,6.13
2018-04-19T13:53:44.292Z,5.20
2018-04-19T13:56:13.333Z,4.77
2018-04-19T13:58:40.848Z,6.73
2018-04-19T14:01:09.161Z,8.90
2018-04-19T14:03:36.690Z,4.37
2018-04-19T14:06:04.935Z,3.53
2018-04-19T14:08:32.404Z,4.10
2018-04-19T14:10:59.902Z,3.43
2018-04-19T14:13:27.655Z,6.97
2018-04-19T14:15:55.282Z,5.67
2018-04-19T14:18:24.349Z,4.53
2018-04-19T14:20:51.819Z,3.90
2018-04-19T14:23:19.291Z,5.47
2018-04-19T14:25:48.269Z,4.30
2018-04-19T14:28:15.724Z,3.63
2018-04-19T14:30:43.214Z,4.47
2018-04-19T14:33:11.861Z,5.60
2018-04-19T14:35:39.308Z,3.50
2018-04-19T14:38:06.804Z,3.17
2018-04-19T14:40:35.025Z,6.83
2018-04-19T14:43:02.481Z,4.80
2018-04-19T14:45:29.964Z,2.50
2018-04-19T14:47:57.416Z,3.47
2018-04-19T14:50:25.489Z,2.53
2018-04-19T14:52:52.957Z,5.67
2018-04-19T14:55:21.235Z,5.70
2018-04-19T14:57:48.786Z,3.50
2018-04-19T15:00:16.222Z,4.57
2018-04-19T15:02:43.696Z,4.53
2018-04-19T15:05:11.163Z,5.27
2018-04-19T15:07:38.613Z,6.33
2018-04-19T15:10:06.848Z,2.23
2018-04-19T15:12:34.306Z,4.73
2018-04-19T15:15:01.782Z,5.40
2018-04-19T15:17:29.281Z,4.83
2018-04-19T15:19:57.564Z,5.97
2018-04-19T15:22:24.992Z,7.40
2018-04-19T15:24:52.469Z,3.30
2018-04-19T15:27:20.697Z,2.80
2018-04-19T15:29:48.188Z,9.50
2018-04-19T15:32:15.665Z,5.60
2018-04-19T15:34:43.888Z,4.60
2018-04-19T15:37:11.420Z,6.47
2018-04-19T15:39:38.881Z,4.30
2018-04-19T15:42:06.335Z,7.80
2018-04-19T15:44:33.825Z,6.23
2018-04-19T15:47:01.282Z,5.63
2018-04-19T15:49:28.745Z,5.00
2018-04-19T15:51:56.985Z,6.47
2018-04-19T15:54:24.456Z,6.40
2018-04-19T15:56:51.944Z,7.57
2018-04-19T15:59:19.407Z,7.93
2018-04-19T16:01:48.893Z,9.50
2018-04-19T16:04:16.373Z,11.13
2018-04-19T16:06:44.608Z,7.63
2018-04-19T16:09:12.060Z,4.10
2018-04-19T16:11:39.532Z,6.30
2018-04-19T16:14:06.991Z,8.43
2018-04-19T16:16:34.513Z,6.07
2018-04-19T16:19:01.988Z,3.90
2018-04-19T16:21:29.417Z,5.87
2018-04-19T16:23:56.931Z,15.43
2018-04-19T16:26:24.457Z,4.50
2018-04-19T16:28:51.970Z,5.57
2018-04-19T16:31:20.337Z,4.53
2018-04-19T16:33:48.575Z,11.43
2018-04-19T16:36:16.413Z,5.73
2018-04-19T16:38:43.897Z,7.07
2018-04-19T16:41:11.368Z,3.43
2018-04-19T16:43:38.820Z,5.47
2018-04-19T16:46:06.336Z,3.00
2018-04-19T16:48:33.813Z,6.73
2018-04-19T16:51:01.762Z,4.40
2018-04-19T16:53:29.240Z,5.00
2018-04-19T16:55:56.697Z,2.93
2018-04-19T16:58:24.334Z,7.40
2018-04-19T17:00:51.816Z,5.70
2018-04-19T17:03:19.281Z,7.73
2018-04-19T17:05:46.739Z,4.67
2018-04-19T17:08:14.218Z,4.80
2018-04-19T17:10:43.177Z,7.10
2018-04-19T17:13:10.671Z,4.63
2018-04-19T17:15:38.130Z,7.53
2018-04-19T17:18:05.585Z,5.90
2018-04-19T17:20:33.886Z,5.50
2018-04-19T17:23:01.345Z,6.67
2018-04-19T17:25:29.684Z,8.53
2018-04-19T17:27:57.958Z,7.63
2018-04-19T17:30:25.385Z,6.40
2018-04-19T17:32:52.915Z,10.00
2018-04-19T17:35:20.370Z,9.10
2018-04-19T17:37:47.822Z,8.83
2018-04-19T17:40:15.349Z,4.73
2018-04-19T17:42:43.608Z,11.77
2018-04-19T17:45:11.057Z,9.67
2018-04-19T17:47:38.587Z,5.50
2018-04-19T17:50:06.050Z,6.13
2018-04-19T17:52:33.530Z,5.73
2018-04-19T17:55:01.003Z,9.47
2018-04-19T17:57:29.241Z,7.63
2018-04-19T17:59:56.770Z,8.83
2018-04-19T18:02:24.245Z,10.03
2018-04-19T18:04:51.722Z,14.67
2018-04-19T18:07:19.220Z,6.50
2018-04-19T18:09:47.464Z,13.33
2018-04-19T18:12:14.984Z,10.83
2018-04-19T18:14:42.459Z,12.27
2018-04-19T18:17:09.946Z,6.53
2018-04-19T18:19:37.427Z,6.73
2018-04-19T18:22:05.666Z,8.73
2018-04-19T18:24:33.168Z,9.80
2018-04-19T18:27:00.691Z,4.60
2018-04-19T18:29:28.175Z,5.40
2018-04-19T18:31:56.478Z,7.80
2018-04-19T18:34:23.956Z,11.10
2018-04-19T18:36:51.440Z,11.07
2018-04-19T18:39:18.950Z,9.20
2018-04-19T18:41:46.409Z,6.27
2018-04-19T18:44:13.884Z,7.90
2018-04-19T18:46:41.351Z,9.27
2018-04-19T18:49:08.812Z,11.37
2018-04-19T18:51:36.306Z,10.20
2018-04-19T18:54:04.545Z,6.57
2018-04-19T18:56:32.034Z,12.60
2018-04-19T18:59:00.286Z,6.63
2018-04-19T19:01:27.760Z,13.13
2018-04-19T19:03:56.003Z,10.70
2018-04-19T19:06:23.501Z,5.40
2018-04-19T19:08:51.748Z,7.33
2018-04-19T19:11:19.214Z,7.43
2018-04-19T19:13:46.720Z,11.00
2018-04-19T19:16:14.178Z,6.10
2018-04-19T19:18:53.438Z,8.30
2018-04-19T19:21:20.903Z,7.47
2018-04-19T19:23:48.379Z,7.03
2018-04-19T19:26:16.638Z,6.33
2018-04-19T19:28:44.097Z,12.50
2018-04-19T19:31:11.596Z,7.63
2018-04-19T19:33:39.062Z,7.67
2018-04-19T19:36:06.561Z,19.03
2018-04-19T19:38:34.079Z,6.10
2018-04-19T19:41:01.542Z,8.50
2018-04-19T19:43:29.042Z,13.60
2018-04-19T19:45:56.549Z,16.90
2018-04-19T19:48:24.109Z,11.43
2018-04-19T19:50:51.569Z,5.20
2018-04-19T19:53:19.028Z,13.23
2018-04-19T19:55:46.505Z,8.07
2018-04-19T19:58:13.989Z,9.60
2018-04-19T20:00:41.443Z,9.00
2018-04-19T20:03:08.951Z,8.80
2018-04-19T20:05:36.456Z,8.40
2018-04-19T20:08:04.066Z,7.00
2018-04-19T20:10:43.139Z,8.63
2018-04-19T20:13:10.612Z,8.90
2018-04-19T20:15:38.080Z,7.67
2018-04-19T20:18:06.331Z,6.30
2018-04-19T20:20:33.797Z,7.33
2018-04-19T20:23:01.281Z,6.17
2018-04-19T20:25:28.736Z,8.40
2018-04-19T20:27:56.253Z,11.90
2018-04-19T20:30:23.762Z,8.47
2018-04-19T20:32:51.223Z,5.83
2018-04-19T20:35:18.702Z,7.57
2018-04-19T20:37:46.168Z,10.57
2018-04-19T20:40:13.646Z,7.73
2018-04-19T20:42:41.103Z,12.07
2018-04-19T20:45:08.576Z,12.23
2018-04-19T20:47:36.822Z,7.57
2018-04-19T20:50:04.298Z,9.90
2018-04-19T20:52:31.755Z,11.83
2018-04-19T20:54:59.993Z,14.73
2018-04-19T20:57:27.460Z,13.67
2018-04-19T20:59:54.932Z,17.37
2018-04-19T21:02:22.401Z,9.67
2018-04-19T21:04:49.869Z,14.33
2018-04-19T21:07:18.116Z,12.27
2018-04-19T21:09:45.573Z,7.03
2018-04-19T21:12:13.044Z,10.17
2018-04-19T21:14:41.281Z,8.73
2018-04-19T21:17:08.761Z,9.70
2018-04-19T21:19:36.255Z,12.57
2018-04-19T21:22:03.712Z,17.20
2018-04-19T21:24:31.332Z,18.27
2018-04-19T21:26:58.776Z,13.17
2018-04-19T21:29:26.263Z,12.97
2018-04-19T21:31:53.712Z,12.53
2018-04-19T21:34:21.216Z,12.23
2018-04-19T21:36:48.722Z,12.30
2018-04-19T21:39:16.213Z,16.47
2018-04-19T21:41:43.733Z,11.70
2018-04-19T21:44:11.202Z,9.13
2018-04-19T21:46:39.456Z,12.03
2018-04-19T21:49:06.917Z,15.93
2018-04-19T21:51:34.380Z,12.07
2018-04-19T21:54:02.637Z,17.90
2018-04-19T21:56:30.102Z,14.13
2018-04-19T21:58:57.589Z,10.83
2018-04-19T22:01:25.811Z,7.13
2018-04-19T22:03:53.269Z,7.70
2018-04-19T22:06:20.748Z,12.80
2018-04-19T22:08:48.349Z,12.33
2018-04-19T22:11:16.562Z,10.30
2018-04-19T22:13:44.035Z,13.00
2018-04-19T22:16:11.501Z,11.83
2018-04-19T22:18:38.989Z,10.13
2018-04-19T22:21:07.209Z,13.50
2018-04-19T22:23:34.669Z,14.47
2018-04-19T22:26:02.156Z,8.67
2018-04-19T22:28:30.474Z,10.93
2018-04-19T22:30:58.032Z,14.03
2018-04-19T22:33:25.513Z,15.20
2018-04-19T22:35:52.977Z,9.43
2018-04-19T22:38:20.576Z,11.73
2018-04-19T22:40:48.799Z,11.93
2018-04-19T22:43:16.266Z,14.23
2018-04-19T22:45:43.759Z,9.73
2018-04-19T22:48:11.993Z,12.77
2018-04-19T22:50:39.484Z,9.80
2018-04-19T22:53:07.710Z,11.63
2018-04-19T22:55:35.164Z,8.67
2018-04-19T22:58:02.653Z,11.30
2018-04-19T23:00:30.125Z,12.43
2018-04-19T23:02:57.693Z,10.63
2018-04-19T23:05:25.237Z,19.43
2018-04-19T23:07:52.746Z,13.00
2018-04-19T23:10:20.201Z,11.47
2018-04-19T23:12:47.661Z,10.00
2018-04-19T23:15:15.140Z,12.13
2018-04-19T23:17:42.601Z,9.20
2018-04-19T23:20:10.076Z,14.93
2018-04-19T23:22:38.376Z,10.57
2018-04-19T23:25:06.662Z,10.00
2018-04-19T23:27:34.241Z,11.40
2018-04-19T23:30:01.748Z,9.40
2018-04-19T23:32:29.208Z,8.07
2018-04-19T23:34:57.456Z,8.90
2018-04-19T23:37:24.915Z,8.47
2018-04-19T23:39:52.373Z,11.67
2018-04-19T23:42:19.845Z,12.03
2018-04-19T23:44:47.324Z,10.20
2018-04-19T23:47:15.576Z,13.13
2018-04-19T23:49:43.145Z,10.00
2018-04-19T23:52:11.364Z,8.83
2018-04-19T23:54:38.888Z,7.90
2018-04-19T23:57:06.341Z,13.07
2018-04-19T23:59:34.568Z,14.80
